createdAt,value
2023-05-24T00:01:21.328Z,90.31829
2023-05-24T00:06:22.877Z,91.36842
2023-05-24T00:11:24.561Z,91.36842
2023-05-24T00:16:26.378Z,91.72182
2023-05-24T00:21:27.895Z,90.66667
2023-05-24T00:26:29.792Z,89.28302
2023-05-24T00:31:31.591Z,88.2623
2023-05-24T00:36:33.420Z,87.58974
2023-05-24T00:41:35.209Z,87.58974
2023-05-24T00:46:36.973Z,87.92523
2023-05-24T00:51:38.705Z,88.2623
2023-05-24T00:56:40.268Z,87.92523
2023-05-24T01:01:42.114Z,87.92523
2023-05-24T01:06:43.769Z,88.2623
2023-05-24T01:11:45.509Z,88.94118
2023-05-24T01:16:47.188Z,88.94118
2023-05-24T01:21:48.866Z,88.94118
2023-05-24T01:26:50.505Z,89.62648
2023-05-24T01:31:52.230Z,89.28302
2023-05-24T01:36:54.066Z,89.62648
2023-05-24T01:41:55.970Z,89.28302
2023-05-24T01:46:57.833Z,89.62648
2023-05-24T01:51:59.562Z,89.97156
2023-05-24T01:57:01.186Z,90.66667
2023-05-24T02:02:02.882Z,90.66667
2023-05-24T02:07:04.800Z,90.66667
2023-05-24T02:12:06.378Z,89.97156
2023-05-24T02:17:07.993Z,90.31829
2023-05-24T02:22:09.596Z,90.31829
2023-05-24T02:27:11.274Z,91.01671
2023-05-24T02:32:12.829Z,91.01671
2023-05-24T02:37:14.560Z,90.31829
2023-05-24T02:42:15.889Z,87.92523
2023-05-24T02:47:17.320Z,84.9611
2023-05-24T02:52:18.614Z,81.80761
2023-05-24T02:57:20.419Z,80.28319
2023-05-24T03:02:22.059Z,78.49782
2023-05-24T03:07:23.666Z,76.75862
2023-05-24T03:12:25.706Z,76.47312
2023-05-24T03:17:27.525Z,76.47312
2023-05-24T03:22:29.384Z,77.33333
2023-05-24T03:27:31.251Z,78.79212
2023-05-24T03:32:32.779Z,80.28319
2023-05-24T03:37:34.159Z,81.19376
2023-05-24T03:42:35.781Z,83.36652
2023-05-24T03:47:37.356Z,85.2844
2023-05-24T03:52:39.118Z,86.26328
2023-05-24T03:57:41.142Z,87.25581
2023-05-24T04:02:43.079Z,88.2623
2023-05-24T04:07:44.781Z,88.94118
2023-05-24T04:12:46.808Z,89.28302
2023-05-24T04:17:48.705Z,89.62648
2023-05-24T04:22:50.344Z,88.2623
2023-05-24T04:27:52.130Z,86.26328
2023-05-24T04:32:54.118Z,85.6092
2023-05-24T04:37:55.878Z,85.93548
2023-05-24T04:42:57.758Z,84
2023-05-24T04:47:59.466Z,82.73874
2023-05-24T04:53:01.212Z,82.11659
2023-05-24T04:58:03.222Z,76.47312
2023-05-24T05:03:04.997Z,78.79212
2023-05-24T05:08:07.023Z,77.91304
2023-05-24T05:13:08.948Z,77.04536
2023-05-24T05:18:10.562Z,77.04536
2023-05-24T05:23:12.171Z,77.33333
2023-05-24T05:28:13.690Z,77.62256
2023-05-24T05:33:15.122Z,78.20479
2023-05-24T05:38:16.514Z,77.91304
2023-05-24T05:43:18.092Z,78.20479
2023-05-24T05:48:19.649Z,78.20479
2023-05-24T05:53:21.102Z,78.79212
2023-05-24T05:58:22.843Z,79.68282
2023-05-24T06:03:24.584Z,84.31891
2023-05-24T06:08:26.024Z,86.92343
2023-05-24T06:13:27.492Z,85.2844
2023-05-24T06:18:28.846Z,89.62648
2023-05-24T06:23:30.400Z,97.23383
2023-05-24T06:28:32.216Z,92.79227
2023-05-24T06:38:35.163Z,95.72414
2023-05-24T06:43:36.959Z,96.47525
2023-05-24T06:48:38.557Z,101.54476
2023-05-24T06:53:40.018Z,105.25654
2023-05-24T06:58:41.715Z,96.47525
2023-05-24T07:03:43.634Z,96.09877
2023-05-24T07:08:45.227Z,100.34518
2023-05-24T07:13:47.244Z,101.14286
2023-05-24T07:18:48.852Z,107.82979
2023-05-24T07:29:00.906Z,110.48649
2023-05-24T07:34:02.601Z,109.5914
2023-05-24T07:39:04.072Z,109.14745
2023-05-24T07:44:05.643Z,121.52161
2023-05-24T07:49:07.118Z,134.12346
2023-05-24T07:54:08.869Z,134.71207
2023-05-24T07:59:10.231Z,135.30435
2023-05-24T08:04:11.514Z,137.10345
2023-05-24T08:09:12.812Z,142.07074
2023-05-24T08:14:14.935Z,138.93671
2023-05-24T08:19:16.531Z,135.30435
2023-05-24T08:24:17.912Z,144
2023-05-24T08:29:19.397Z,145.30719
2023-05-24T08:34:20.851Z,151.40741
2023-05-24T08:39:22.357Z,144.65147
2023-05-24T08:44:23.984Z,150.02007
2023-05-24T08:49:25.483Z,150.71141
2023-05-24T08:54:27.282Z,144.65147
2023-05-24T08:59:29.280Z,158.63415
2023-05-24T09:04:30.925Z,144
2023-05-24T09:09:32.557Z,153.52381
2023-05-24T09:14:34.658Z,164.78853
2023-05-24T09:19:36.238Z,160.90141
2023-05-24T09:24:37.543Z,160.90141
2023-05-24T09:29:39.081Z,171.30627
2023-05-24T09:34:40.986Z,174.71161
2023-05-24T09:39:42.494Z,167.18841
2023-05-24T09:44:44.249Z,179.1145
2023-05-24T09:49:48.547Z,174.71161
2023-05-24T09:54:51.123Z,172.99628
2023-05-24T09:59:52.821Z,172.99628
2023-05-24T10:04:54.731Z,176.45283
2023-05-24T10:09:56.248Z,194.4065
2023-05-24T10:14:57.890Z,187.47826
2023-05-24T10:19:59.238Z,185.56863
2023-05-24T10:25:00.809Z,176.45283
2023-05-24T10:30:02.315Z,180.01533
2023-05-24T10:35:03.735Z,196.45902
2023-05-24T10:40:05.312Z,207.24786
2023-05-24T10:45:07.174Z,202.82353
2023-05-24T10:50:08.645Z,244.4878
2023-05-24T10:55:10.094Z,210.66667
2023-05-24T11:00:15.583Z,240.15385
2023-05-24T11:05:21.959Z,258.28571
2023-05-24T11:10:23.439Z,241.58454
2023-05-24T11:15:24.993Z,247.44828
2023-05-24T11:20:26.574Z,268.21053
2023-05-24T11:25:27.944Z,220.23318
2023-05-24T11:30:29.477Z,255.11111
2023-05-24T11:35:30.957Z,0
2023-05-24T11:40:32.329Z,0
2023-05-24T11:45:33.907Z,0
2023-05-24T11:50:45.653Z,0
2023-05-24T11:55:50.434Z,0
2023-05-24T12:00:51.929Z,0
2023-05-24T12:05:53.276Z,0
2023-05-24T12:10:54.832Z,0
2023-05-24T12:15:57.022Z,0
2023-05-24T12:20:58.669Z,0
2023-05-24T12:26:00.224Z,0
2023-05-24T12:31:01.944Z,0
2023-05-24T12:36:03.390Z,0
2023-05-24T12:46:09.523Z,0
2023-05-24T12:51:11.054Z,0
2023-05-24T12:56:12.506Z,0
2023-05-24T13:01:14.057Z,0
2023-05-24T13:06:15.506Z,0
2023-05-24T13:11:16.973Z,0
2023-05-24T13:16:18.910Z,0
2023-05-24T13:21:20.481Z,0
2023-05-24T13:26:22.002Z,0
2023-05-24T13:31:23.590Z,0
2023-05-24T13:36:25.072Z,0
2023-05-24T13:41:26.648Z,0
2023-05-24T13:46:28.237Z,0
2023-05-24T13:51:30.075Z,0
2023-05-24T13:56:31.419Z,0
2023-05-24T14:01:32.967Z,0
2023-05-24T14:06:34.798Z,0
2023-05-24T14:11:36.508Z,0
2023-05-24T14:16:38.481Z,0
2023-05-24T14:21:40.483Z,0
2023-05-24T14:26:42.235Z,0
2023-05-24T14:31:44.221Z,253.54774
2023-05-24T14:36:46.017Z,258.28571
2023-05-24T14:41:47.743Z,238.73684
2023-05-24T14:46:49.598Z,202.82353
2023-05-24T14:51:51.004Z,192.3871
2023-05-24T14:56:52.472Z,163.21708
2023-05-24T15:01:54.172Z,150.71141
2023-05-24T15:06:55.487Z,118.50425
2023-05-24T15:11:57.071Z,103.17313
2023-05-24T15:16:58.620Z,100.743
2023-05-24T15:22:00.079Z,101.94872
2023-05-24T15:27:01.979Z,102.35476
2023-05-24T15:32:03.774Z,103.58549
2023-05-24T15:37:05.619Z,104.83551
2023-05-24T15:42:07.225Z,104
2023-05-24T15:47:08.669Z,104
2023-05-24T15:52:10.373Z,101.94872
2023-05-24T15:57:12.064Z,101.14286
2023-05-24T16:02:13.620Z,99.55556
2023-05-24T16:07:15.115Z,100.743
2023-05-24T16:12:16.625Z,99.94937
2023-05-24T16:17:18.185Z,100.34518
2023-05-24T16:22:19.690Z,100.34518
2023-05-24T16:27:21.189Z,105.25654
2023-05-24T16:32:22.535Z,98.77387
2023-05-24T16:37:24.010Z,97.23383
2023-05-24T16:42:25.508Z,99.16373
2023-05-24T16:47:29.480Z,97.61596
2023-05-24T16:52:31.744Z,95.72414
2023-05-24T16:57:33.225Z,96.09877
2023-05-24T17:02:34.683Z,93.15254
2023-05-24T17:07:36.245Z,91.01671
2023-05-24T17:12:37.876Z,89.28302
2023-05-24T17:17:39.383Z,88.2623
2023-05-24T17:22:40.896Z,90.31829
2023-05-24T17:27:42.497Z,96.09877
2023-05-24T17:32:43.978Z,89.62648
2023-05-24T17:37:45.307Z,88.2623
2023-05-24T17:42:46.724Z,88.2623
2023-05-24T17:47:48.230Z,88.60094
2023-05-24T17:52:49.689Z,88.2623
2023-05-24T17:57:51.239Z,87.92523
2023-05-24T18:02:52.711Z,84.63927
2023-05-24T18:07:54.088Z,84.63927
2023-05-24T18:12:55.623Z,87.25581
2023-05-24T18:17:57.046Z,88.94118
2023-05-24T18:22:58.808Z,89.97156
2023-05-24T18:28:00.652Z,88.60094
2023-05-24T18:33:07.786Z,87.58974
2023-05-24T18:38:10.177Z,86.26328
2023-05-24T18:43:12.030Z,84.31891
2023-05-24T18:48:13.853Z,83.68254
2023-05-24T18:53:15.271Z,84
2023-05-24T18:58:16.746Z,84.63927
2023-05-24T19:03:18.285Z,84.63927
2023-05-24T19:08:19.800Z,84.9611
2023-05-24T19:13:21.459Z,85.2844
2023-05-24T19:18:22.845Z,84.31891
2023-05-24T19:23:24.685Z,85.2844
2023-05-24T19:28:26.602Z,90.66667
2023-05-24T19:33:27.979Z,93.51456
2023-05-24T19:38:29.764Z,95.35135
2023-05-24T19:43:31.634Z,94.98039
2023-05-24T19:48:33.422Z,90.31829
2023-05-24T19:53:35.199Z,88.60094
2023-05-24T19:58:37.076Z,91.01671
2023-05-24T20:03:39.051Z,91.36842
2023-05-24T20:08:40.637Z,90.31829
2023-05-24T20:13:42.011Z,89.62648
2023-05-24T20:18:43.504Z,90.31829
2023-05-24T20:23:44.904Z,89.97156
2023-05-24T20:28:46.471Z,90.31829
2023-05-24T20:33:48.108Z,91.01671
2023-05-24T20:38:49.612Z,89.97156
2023-05-24T20:43:51.209Z,90.31829
2023-05-24T20:48:52.944Z,93.15254
2023-05-24T20:53:54.604Z,91.72182
2023-05-24T20:58:56.534Z,90.66667
2023-05-24T21:03:58.005Z,91.36842
2023-05-24T21:08:59.453Z,91.36842
2023-05-24T21:14:00.966Z,89.62648
2023-05-24T21:19:02.508Z,88.2623
2023-05-24T21:24:04.406Z,87.25581
2023-05-24T21:29:05.887Z,86.26328
2023-05-24T21:34:07.354Z,85.93548
2023-05-24T21:39:08.951Z,84.9611
2023-05-24T21:44:10.860Z,84.63927
2023-05-24T21:49:12.651Z,84.63927
2023-05-24T21:54:14.486Z,84.31891
2023-05-24T22:04:16.654Z,82.73874
2023-05-24T22:09:18.260Z,82.42697
2023-05-24T22:14:19.813Z,80.88889
2023-05-24T22:19:32.300Z,79.68282
2023-05-24T22:24:41.621Z,78.79212
2023-05-24T22:29:43.386Z,78.20479
2023-05-24T22:34:45.126Z,77.91304
2023-05-24T22:39:46.738Z,76.47312
2023-05-24T22:44:48.627Z,76.18884
2023-05-24T22:49:50.220Z,76.47312
2023-05-24T22:54:51.900Z,75.34328
2023-05-24T22:59:53.862Z,75.34328
2023-05-24T23:04:55.691Z,75.34328
2023-05-24T23:09:57.533Z,75.62393
2023-05-24T23:14:59.477Z,75.62393
2023-05-24T23:20:01.342Z,76.18884
2023-05-24T23:25:03.152Z,76.18884
2023-05-24T23:30:04.789Z,76.75862
2023-05-24T23:35:06.446Z,77.04536
2023-05-24T23:40:08.239Z,77.62256
2023-05-24T23:45:10.223Z,77.62256
2023-05-24T23:50:11.954Z,77.62256
2023-05-24T23:55:13.954Z,77.33333
